Time;durP1;ratioP1;P1;durP2;ratioP2;P2;SDS_P1;SDS_P2;PMS_P1;PMS_P2;Temp;Humidity;BMP_temperature;BMP_pressure;BME280_temperature;BME280_humidity;BME280_pressure;Samples;Min_cycle;Max_cycle;Signal;HPM_P1;HPM_P2
2023/06/15 00:00:45;;;;;;;7.75;2.20;;;14.30;93.80;;;;;;6153222;23;20021;-60
2023/06/15 00:03:10;;;;;;;3.42;2.10;;;14.20;93.30;;;;;;6180111;23;20032;-59
2023/06/15 00:05:36;;;;;;;4.82;2.40;;;14.20;93.30;;;;;;6179352;23;20418;-60
2023/06/15 00:08:02;;;;;;;4.40;2.30;;;14.20;93.80;;;;;;6180510;23;20020;-60
2023/06/15 00:10:28;;;;;;;3.30;1.67;;;14.20;93.70;;;;;;6153593;23;20453;-59
2023/06/15 00:12:53;;;;;;;2.30;1.90;;;14.10;93.40;;;;;;6178544;23;20001;-60
2023/06/15 00:15:19;;;;;;;2.78;2.10;;;14.10;93.70;;;;;;6179640;23;20047;-60
2023/06/15 00:17:44;;;;;;;2.83;1.80;;;14.10;93.70;;;;;;6179758;23;20005;-59
2023/06/15 00:20:13;;;;;;;4.15;2.08;;;14.10;93.90;;;;;;6179257;23;20012;-60
2023/06/15 00:22:41;;;;;;;2.90;2.17;;;14.10;94.10;;;;;;6179878;23;20013;-60
2023/06/15 00:25:10;;;;;;;3.08;1.85;;;14.10;93.90;;;;;;6153467;23;20005;-60
2023/06/15 00:27:36;;;;;;;3.58;2.15;;;14.10;94.10;;;;;;6179542;23;20005;-60
2023/06/15 00:30:05;;;;;;;3.63;2.13;;;14.00;94.10;;;;;;6179669;23;20011;-60
2023/06/15 00:32:31;;;;;;;2.30;1.90;;;14.00;94.40;;;;;;6179231;23;20005;-61
2023/06/15 00:34:56;;;;;;;2.30;2.10;;;14.00;94.40;;;;;;6179856;23;20016;-60
2023/06/15 00:37:22;;;;;;;4.68;2.30;;;13.90;94.30;;;;;;6179902;23;20051;-60
2023/06/15 00:39:47;;;;;;;2.50;1.83;;;13.90;94.50;;;;;;6179530;23;20033;-60
2023/06/15 00:42:13;;;;;;;3.03;2.28;;;13.90;94.80;;;;;;6179595;23;20341;-60
2023/06/15 00:44:38;;;;;;;2.75;2.28;;;13.90;94.30;;;;;;6178873;23;20044;-59
2023/06/15 00:47:05;;;;;;;3.50;2.45;;;13.90;94.20;;;;;;6179386;23;20009;-61
2023/06/15 00:49:32;;;;;;;2.45;2.25;;;13.90;94.30;;;;;;6175457;23;20032;-60
2023/06/15 00:51:59;;;;;;;2.72;1.85;;;13.90;94.50;;;;;;6180989;23;19997;-61
2023/06/15 00:54:26;;;;;;;2.40;2.20;;;13.90;94.70;;;;;;6180595;23;20009;-60
2023/06/15 00:56:52;;;;;;;2.60;1.92;;;13.80;95.00;;;;;;6181514;23;20039;-60
2023/06/15 00:59:19;;;;;;;2.30;2.10;;;13.80;95.00;;;;;;6179271;23;20044;-61
2023/06/15 01:01:44;;;;;;;3.65;2.35;;;13.80;94.90;;;;;;6177969;23;20045;-60
2023/06/15 01:04:10;;;;;;;4.72;2.00;;;13.70;95.20;;;;;;6179461;23;20005;-61
2023/06/15 01:06:41;;;;;;;2.53;2.03;;;13.70;95.30;;;;;;6181295;23;20014;-61
2023/06/15 01:09:09;;;;;;;2.35;1.80;;;13.60;95.30;;;;;;6181852;23;20060;-60
2023/06/15 01:11:35;;;;;;;2.13;2.00;;;13.60;95.60;;;;;;6180187;23;20009;-61
2023/06/15 01:14:03;;;;;;;2.88;2.08;;;13.60;95.40;;;;;;6180678;23;20009;-61
2023/06/15 01:16:37;;;;;;;4.35;2.55;;;13.50;95.40;;;;;;6154307;23;20449;-60
2023/06/15 01:19:09;;;;;;;4.13;2.35;;;13.50;95.30;;;;;;6181066;23;20005;-61
2023/06/15 01:21:35;;;;;;;2.55;2.03;;;13.50;95.30;;;;;;6181200;23;20345;-60
2023/06/15 01:24:05;;;;;;;3.17;2.10;;;13.40;95.40;;;;;;6180917;23;20611;-59
2023/06/15 01:26:33;;;;;;;3.17;2.15;;;13.40;95.50;;;;;;6154686;23;20187;-60
2023/06/15 01:28:59;;;;;;;2.30;2.10;;;13.30;95.60;;;;;;6181210;23;20083;-59
2023/06/15 01:31:27;;;;;;;2.45;2.08;;;13.30;95.60;;;;;;6153662;23;20323;-59
2023/06/15 01:33:53;;;;;;;4.50;2.40;;;13.20;95.60;;;;;;6180779;23;20005;-58
2023/06/15 01:36:19;;;;;;;2.25;1.90;;;13.20;95.80;;;;;;6181727;23;20433;-60
2023/06/15 01:38:47;;;;;;;6.95;2.47;;;13.20;96.00;;;;;;6181089;23;20013;-58
2023/06/15 01:41:15;;;;;;;5.45;2.30;;;13.10;96.20;;;;;;6181254;23;20013;-59
2023/06/15 01:43:41;;;;;;;2.25;2.03;;;13.10;96.70;;;;;;6180706;23;20072;-57
2023/06/15 01:46:07;;;;;;;2.75;2.47;;;13.00;96.60;;;;;;6181013;23;20468;-59
2023/06/15 01:48:33;;;;;;;3.15;2.22;;;13.00;96.80;;;;;;6181438;23;20023;-59
2023/06/15 01:51:00;;;;;;;2.65;2.45;;;13.00;96.60;;;;;;6181202;23;20063;-60
2023/06/15 01:53:26;;;;;;;4.88;2.30;;;12.90;96.80;;;;;;6181262;23;20434;-57
2023/06/15 01:55:52;;;;;;;2.88;2.47;;;12.90;96.80;;;;;;6180663;23;20008;-60
2023/06/15 01:58:17;;;;;;;3.17;1.95;;;12.80;97.00;;;;;;6180700;23;20402;-60
2023/06/15 02:00:44;;;;;;;3.47;2.42;;;12.70;97.30;;;;;;6180269;23;20013;-60
2023/06/15 02:03:11;;;;;;;3.70;2.60;;;12.70;97.70;;;;;;6180813;23;20005;-59
2023/06/15 02:05:39;;;;;;;3.28;2.53;;;12.60;97.80;;;;;;6180927;23;20084;-57
2023/06/15 02:08:06;;;;;;;2.42;2.22;;;12.60;97.90;;;;;;6154174;23;20009;-60
2023/06/15 02:10:31;;;;;;;4.57;2.10;;;12.50;98.00;;;;;;6181262;23;20449;-59
2023/06/15 02:12:57;;;;;;;3.28;1.95;;;12.50;98.50;;;;;;6179796;23;20009;-59
2023/06/15 02:15:23;;;;;;;2.65;2.42;;;12.50;99.10;;;;;;6181249;23;20005;-60
2023/06/15 02:17:48;;;;;;;2.60;2.25;;;12.50;99.00;;;;;;6181332;23;20438;-59
2023/06/15 02:20:14;;;;;;;2.95;2.40;;;12.50;98.80;;;;;;6180645;23;20001;-59
2023/06/15 02:22:40;;;;;;;4.05;2.30;;;12.50;98.90;;;;;;6181048;23;20009;-59
2023/06/15 02:25:07;;;;;;;3.60;2.33;;;12.40;98.80;;;;;;6180449;23;20381;-58
2023/06/15 02:27:34;;;;;;;2.83;2.45;;;12.40;99.10;;;;;;6180908;23;20001;-59
2023/06/15 02:29:59;;;;;;;4.07;2.85;;;12.40;99.20;;;;;;6180775;23;20029;-58
2023/06/15 02:32:36;;;;;;;3.13;2.38;;;12.40;99.40;;;;;;6153922;23;20024;-57
2023/06/15 02:35:07;;;;;;;4.00;2.40;;;12.30;99.30;;;;;;6180653;23;19997;-59
2023/06/15 02:37:32;;;;;;;3.15;2.55;;;12.30;99.40;;;;;;6180750;23;19997;-57
2023/06/15 02:39:58;;;;;;;3.13;2.53;;;12.30;99.50;;;;;;6178848;23;20005;-60
2023/06/15 02:42:23;;;;;;;4.38;2.50;;;12.30;99.90;;;;;;6180689;23;20342;-59
2023/06/15 02:44:49;;;;;;;2.30;2.10;;;12.30;99.90;;;;;;6180405;23;20001;-58
2023/06/15 02:47:15;;;;;;;4.28;2.78;;;12.30;99.90;;;;;;6154433;23;20342;-60
2023/06/15 02:49:40;;;;;;;4.10;2.38;;;12.20;99.90;;;;;;6180548;23;19997;-59
2023/06/15 02:52:06;;;;;;;4.50;3.05;;;12.20;99.90;;;;;;6180336;23;20501;-59
2023/06/15 02:54:32;;;;;;;5.45;2.60;;;12.20;99.90;;;;;;6178966;23;20008;-60
2023/06/15 02:56:57;;;;;;;2.83;2.13;;;12.10;99.90;;;;;;6153981;23;20342;-60
2023/06/15 02:59:25;;;;;;;2.50;2.17;;;12.10;99.90;;;;;;6180025;23;20086;-59
2023/06/15 03:01:53;;;;;;;2.53;2.30;;;12.10;99.90;;;;;;6178356;23;20389;-59
2023/06/15 03:04:21;;;;;;;4.95;2.63;;;12.00;99.90;;;;;;6179376;23;20016;-59
2023/06/15 03:06:50;;;;;;;4.68;2.35;;;12.00;99.90;;;;;;6179106;23;20097;-59
2023/06/15 03:09:21;;;;;;;3.60;2.40;;;12.00;99.90;;;;;;6179120;23;20020;-59
2023/06/15 03:11:47;;;;;;;3.10;2.53;;;12.00;99.90;;;;;;6178170;23;20005;-59
2023/06/15 03:14:12;;;;;;;4.57;2.53;;;11.90;99.90;;;;;;6179139;23;20415;-60
2023/06/15 03:16:39;;;;;;;2.95;2.53;;;11.90;99.90;;;;;;6178941;23;20039;-59
2023/06/15 03:19:07;;;;;;;3.05;2.42;;;11.90;99.90;;;;;;6179243;23;20023;-60
2023/06/15 03:21:33;;;;;;;4.03;2.53;;;11.80;99.90;;;;;;6153236;23;20580;-59
2023/06/15 03:23:59;;;;;;;3.80;2.58;;;11.80;99.90;;;;;;6179152;23;20012;-60
2023/06/15 03:26:26;;;;;;;3.15;2.65;;;11.80;99.90;;;;;;6179088;23;20005;-59
2023/06/15 03:28:53;;;;;;;2.15;2.00;;;11.80;99.90;;;;;;6179202;23;20001;-59
2023/06/15 03:31:19;;;;;;;2.65;2.30;;;11.70;99.90;;;;;;6178675;23;20009;-57
2023/06/15 03:33:48;;;;;;;3.83;2.42;;;11.70;99.90;;;;;;6179329;23;20055;-58
2023/06/15 03:36:13;;;;;;;3.92;2.60;;;11.70;99.90;;;;;;6179236;23;20091;-58
2023/06/15 03:38:42;;;;;;;3.75;2.35;;;11.70;99.90;;;;;;6178859;23;20013;-58
2023/06/15 03:41:08;;;;;;;4.93;2.60;;;11.70;99.90;;;;;;6178951;23;20453;-59
2023/06/15 03:43:37;;;;;;;3.03;2.28;;;11.70;99.90;;;;;;6179115;23;20016;-58
2023/06/15 03:46:04;;;;;;;3.63;2.50;;;11.70;99.90;;;;;;6178364;23;20005;-59
2023/06/15 03:48:30;;;;;;;3.92;2.60;;;11.70;99.90;;;;;;6178644;23;20059;-59
2023/06/15 03:50:56;;;;;;;2.80;2.20;;;11.70;99.90;;;;;;6179340;23;20013;-59
2023/06/15 03:53:22;;;;;;;3.85;2.55;;;11.70;99.90;;;;;;6179322;23;20001;-60
2023/06/15 03:55:48;;;;;;;3.97;3.28;;;11.70;99.90;;;;;;6179266;23;20604;-58
2023/06/15 03:58:14;;;;;;;4.72;2.65;;;11.70;99.90;;;;;;6179038;23;20012;-61
2023/06/15 04:00:40;;;;;;;3.30;2.88;;;11.60;99.90;;;;;;6178052;23;20087;-60
2023/06/15 04:03:06;;;;;;;4.18;2.78;;;11.70;99.90;;;;;;6179393;23;20341;-58
2023/06/15 04:05:32;;;;;;;2.67;2.40;;;11.60;99.90;;;;;;6152490;23;20013;-57
2023/06/15 04:07:59;;;;;;;5.45;3.30;;;11.60;99.90;;;;;;6178889;23;20001;-61
2023/06/15 04:10:25;;;;;;;5.00;2.88;;;11.70;99.90;;;;;;6152797;23;20017;-60
2023/06/15 04:12:51;;;;;;;3.53;2.78;;;11.70;99.90;;;;;;6178280;23;20063;-59
2023/06/15 04:15:16;;;;;;;3.58;2.42;;;11.70;99.90;;;;;;6178343;23;20032;-59
2023/06/15 04:17:42;;;;;;;3.25;2.50;;;11.70;99.90;;;;;;6179189;23;20007;-60
2023/06/15 04:20:08;;;;;;;3.65;2.83;;;11.70;99.90;;;;;;6178275;23;20068;-60
2023/06/15 04:22:35;;;;;;;2.70;2.47;;;11.70;99.90;;;;;;6151903;23;20357;-61
2023/06/15 04:25:00;;;;;;;3.50;2.63;;;11.70;99.90;;;;;;6152190;23;20009;-61
2023/06/15 04:27:27;;;;;;;3.60;2.83;;;11.70;99.90;;;;;;6181673;23;20012;-60
2023/06/15 04:29:53;;;;;;;3.40;2.95;;;11.70;99.90;;;;;;6154192;23;20001;-60
2023/06/15 04:32:19;;;;;;;4.25;2.72;;;11.80;99.90;;;;;;6180641;23;20020;-60
2023/06/15 04:34:45;;;;;;;2.97;2.67;;;11.80;99.90;;;;;;6179810;23;20298;-59
2023/06/15 04:37:12;;;;;;;3.17;2.30;;;11.80;99.90;;;;;;6180894;23;20016;-59
2023/06/15 04:39:38;;;;;;;2.90;2.60;;;11.90;99.90;;;;;;6180753;23;20322;-60
2023/06/15 04:42:04;;;;;;;2.65;2.40;;;11.90;99.90;;;;;;6180919;23;20009;-61
2023/06/15 04:44:30;;;;;;;4.80;2.72;;;12.00;99.90;;;;;;6153826;23;20071;-61
2023/06/15 04:46:55;;;;;;;7.10;2.70;;;12.00;99.90;;;;;;6180708;23;20060;-61
2023/06/15 04:49:21;;;;;;;3.55;2.83;;;12.10;99.90;;;;;;6180810;23;20031;-60
2023/06/15 04:51:48;;;;;;;3.80;2.90;;;12.10;99.90;;;;;;6180483;23;20001;-60
2023/06/15 04:54:14;;;;;;;3.90;2.97;;;12.20;99.90;;;;;;6180839;23;20067;-61
2023/06/15 04:56:39;;;;;;;4.47;2.70;;;12.30;99.90;;;;;;6180716;23;20155;-60
2023/06/15 04:59:05;;;;;;;3.88;2.80;;;12.40;99.90;;;;;;6180866;23;20394;-61
2023/06/15 05:01:30;;;;;;;3.20;2.90;;;12.50;99.90;;;;;;6180133;23;20013;-61
2023/06/15 05:03:58;;;;;;;4.60;2.95;;;12.60;99.90;;;;;;6180581;23;20001;-61
2023/06/15 05:06:24;;;;;;;4.85;2.72;;;12.70;99.90;;;;;;6153696;23;20020;-61
2023/06/15 05:08:51;;;;;;;3.42;2.85;;;12.90;99.90;;;;;;6180332;23;20005;-60
2023/06/15 05:11:16;;;;;;;3.25;2.63;;;13.00;99.90;;;;;;6180544;23;20032;-59
2023/06/15 05:13:42;;;;;;;3.80;2.55;;;13.10;99.90;;;;;;6180071;23;20638;-61
2023/06/15 05:16:07;;;;;;;4.13;2.60;;;13.30;99.90;;;;;;6180524;23;20008;-61
2023/06/15 05:18:33;;;;;;;5.90;2.85;;;13.30;99.90;;;;;;6180443;23;20001;-61
2023/06/15 05:20:59;;;;;;;4.28;2.95;;;13.40;99.90;;;;;;6180739;23;20012;-61
2023/06/15 05:23:24;;;;;;;4.85;2.97;;;13.60;99.90;;;;;;6179557;23;20088;-61
2023/06/15 05:25:51;;;;;;;6.80;3.03;;;13.70;99.90;;;;;;6180005;23;20177;-61
2023/06/15 05:28:18;;;;;;;5.70;3.25;;;13.90;99.90;;;;;;6154242;23;20526;-61
2023/06/15 05:30:44;;;;;;;3.03;2.65;;;14.00;99.90;;;;;;6153306;23;20454;-61
2023/06/15 05:33:10;;;;;;;3.22;2.92;;;14.10;99.90;;;;;;6181105;23;19997;-62
2023/06/15 05:35:35;;;;;;;5.50;2.55;;;14.30;99.90;;;;;;6180060;23;20055;-61
2023/06/15 05:38:01;;;;;;;8.95;3.08;;;14.40;99.90;;;;;;6180900;23;20077;-61
2023/06/15 05:40:26;;;;;;;5.40;2.75;;;14.60;99.90;;;;;;6180389;23;20005;-62
2023/06/15 05:42:52;;;;;;;3.00;2.40;;;14.80;99.90;;;;;;6180545;23;20003;-61
2023/06/15 05:45:18;;;;;;;4.63;2.50;;;15.00;99.90;;;;;;6180457;23;20001;-61
2023/06/15 05:47:43;;;;;;;4.47;2.70;;;15.30;99.90;;;;;;6180108;23;20008;-61
2023/06/15 05:50:09;;;;;;;8.25;2.45;;;15.50;99.90;;;;;;6153718;23;20060;-62
2023/06/15 05:52:35;;;;;;;4.68;2.33;;;15.80;99.30;;;;;;6180328;23;20515;-62
2023/06/15 05:55:00;;;;;;;3.03;2.30;;;16.00;99.40;;;;;;6179280;23;20077;-61
2023/06/15 05:57:28;;;;;;;3.25;2.63;;;16.30;99.00;;;;;;6180513;23;20472;-62
2023/06/15 05:59:53;;;;;;;2.83;2.35;;;16.50;99.40;;;;;;6179671;23;20476;-60
2023/06/15 06:02:19;;;;;;;4.95;2.60;;;16.70;99.10;;;;;;6179306;23;20029;-62
2023/06/15 06:04:44;;;;;;;3.60;2.15;;;16.70;98.10;;;;;;6179596;23;20028;-62
2023/06/15 06:07:10;;;;;;;4.30;2.22;;;16.80;98.40;;;;;;6154294;23;20036;-62
2023/06/15 06:09:39;;;;;;;5.15;2.15;;;16.70;98.50;;;;;;6180119;23;20008;-62
2023/06/15 06:12:07;;;;;;;3.65;2.30;;;16.80;98.30;;;;;;6180110;23;20464;-62
2023/06/15 06:14:33;;;;;;;2.50;2.30;;;16.90;98.70;;;;;;6180055;23;20005;-62
2023/06/15 06:16:59;;;;;;;7.68;2.38;;;17.10;98.80;;;;;;6180521;23;20028;-63
2023/06/15 06:19:25;;;;;;;4.97;2.40;;;17.40;98.60;;;;;;6179318;23;20323;-63
2023/06/15 06:21:50;;;;;;;4.13;1.92;;;17.70;98.20;;;;;;6180561;23;20016;-62
2023/06/15 06:24:17;;;;;;;2.38;1.98;;;18.00;97.50;;;;;;6180037;23;20005;-63
2023/06/15 06:26:42;;;;;;;4.28;2.72;;;18.20;97.20;;;;;;6180383;23;20142;-63
2023/06/15 06:29:08;;;;;;;3.30;1.90;;;18.50;96.80;;;;;;6152823;23;20000;-62
2023/06/15 06:31:34;;;;;;;4.88;2.40;;;18.70;95.70;;;;;;6153290;23;20017;-63
2023/06/15 06:33:59;;;;;;;2.75;2.28;;;19.00;95.40;;;;;;6180003;23;20025;-63
2023/06/15 06:36:26;;;;;;;3.08;2.63;;;19.20;95.10;;;;;;6179020;23;20071;-65
2023/06/15 06:38:52;;;;;;;3.58;2.58;;;19.40;93.80;;;;;;6152353;23;20009;-63
2023/06/15 06:41:17;;;;;;;7.10;2.40;;;19.40;94.50;;;;;;6180115;23;20345;-63
2023/06/15 06:43:43;;;;;;;4.82;2.47;;;19.60;94.30;;;;;;6180215;23;20005;-64
2023/06/15 06:46:09;;;;;;;10.15;3.10;;;19.80;94.40;;;;;;6180035;23;20012;-64
2023/06/15 06:48:35;;;;;;;3.95;2.22;;;20.10;93.10;;;;;;6179836;23;20076;-63
2023/06/15 06:51:00;;;;;;;3.80;2.85;;;20.20;93.00;;;;;;6179600;23;20039;-64
2023/06/15 06:53:26;;;;;;;7.32;2.33;;;20.30;93.00;;;;;;6179973;23;20064;-67
2023/06/15 06:55:52;;;;;;;4.13;2.30;;;20.50;91.50;;;;;;6179850;23;20017;-63
2023/06/15 06:58:17;;;;;;;4.13;2.58;;;20.60;91.10;;;;;;6153226;23;20065;-64
2023/06/15 07:00:43;;;;;;;4.97;2.72;;;20.90;91.50;;;;;;6153016;23;20442;-64
2023/06/15 07:03:08;;;;;;;6.15;2.10;;;21.10;90.80;;;;;;6179848;23;20005;-63
2023/06/15 07:05:34;;;;;;;4.25;2.95;;;21.30;90.40;;;;;;6179298;23;20009;-63
2023/06/15 07:07:59;;;;;;;1.80;1.70;;;21.50;90.30;;;;;;6179705;23;20041;-64
2023/06/15 07:10:25;;;;;;;4.65;2.45;;;21.50;89.00;;;;;;6180064;23;20056;-64
2023/06/15 07:12:55;;;;;;;2.60;1.90;;;21.70;88.50;;;;;;6179941;23;20001;-64
2023/06/15 07:15:21;;;;;;;2.92;2.33;;;21.90;88.20;;;;;;6179526;23;20097;-65
2023/06/15 07:17:46;;;;;;;3.92;2.38;;;22.10;84.90;;;;;;6179909;23;20094;-64
2023/06/15 07:20:12;;;;;;;11.07;2.50;;;22.10;86.10;;;;;;6152674;23;20101;-66
2023/06/15 07:22:37;;;;;;;3.78;2.45;;;22.40;85.10;;;;;;6179786;23;20330;-63
2023/06/15 07:25:03;;;;;;;2.38;1.67;;;22.50;84.10;;;;;;6179096;23;20393;-64
2023/06/15 07:27:29;;;;;;;4.10;1.85;;;22.70;84.60;;;;;;6179356;23;20075;-65
2023/06/15 07:29:55;;;;;;;2.88;1.95;;;22.90;84.30;;;;;;6179503;23;20132;-64
2023/06/15 07:32:20;;;;;;;3.33;2.25;;;23.00;82.00;;;;;;6179377;23;20370;-65
2023/06/15 07:34:46;;;;;;;3.47;2.25;;;23.20;82.20;;;;;;6179278;23;19997;-64
2023/06/15 07:37:11;;;;;;;3.75;2.78;;;23.10;78.50;;;;;;6153577;23;20337;-64
2023/06/15 07:39:37;;;;;;;4.30;2.60;;;23.00;80.30;;;;;;6178755;23;20348;-64
2023/06/15 07:42:03;;;;;;;5.25;2.25;;;23.20;81.00;;;;;;6179967;23;20057;-64
2023/06/15 07:44:28;;;;;;;3.65;2.42;;;23.40;78.40;;;;;;6178286;23;20012;-65
2023/06/15 07:46:54;;;;;;;3.13;2.10;;;23.30;77.50;;;;;;6153218;23;20327;-66
2023/06/15 07:49:19;;;;;;;2.50;2.15;;;23.40;78.10;;;;;;6179291;23;20021;-70
2023/06/15 07:51:45;;;;;;;9.50;2.30;;;23.70;77.80;;;;;;6179799;23;20359;-69
2023/06/15 07:54:11;;;;;;;3.15;2.83;;;23.90;75.90;;;;;;6178726;23;20005;-67
2023/06/15 07:56:37;;;;;;;6.82;2.45;;;23.90;73.10;;;;;;6179049;23;20033;-67
2023/06/15 07:59:02;;;;;;;3.88;2.20;;;24.10;71.90;;;;;;6179125;23;20015;-67
2023/06/15 08:01:28;;;;;;;4.05;2.47;;;24.10;72.40;;;;;;6152812;23;20017;-65
2023/06/15 08:03:55;;;;;;;3.20;2.40;;;24.00;70.60;;;;;;6181171;23;20012;-64
2023/06/15 08:06:21;;;;;;;3.95;2.90;;;23.70;70.50;;;;;;6180796;23;20008;-65
2023/06/15 08:08:46;;;;;;;3.88;2.00;;;23.70;72.50;;;;;;6181222;23;20008;-67
2023/06/15 08:11:13;;;;;;;4.10;2.05;;;23.70;71.50;;;;;;6181581;23;20001;-65
2023/06/15 08:13:38;;;;;;;5.43;2.28;;;23.80;72.30;;;;;;6181430;23;20513;-66
2023/06/15 08:16:06;;;;;;;6.68;2.25;;;23.80;71.20;;;;;;6154443;23;20005;-69
2023/06/15 08:18:32;;;;;;;2.55;2.15;;;24.00;69.70;;;;;;6180647;23;20001;-67
2023/06/15 08:20:58;;;;;;;5.68;2.40;;;23.90;67.30;;;;;;6180758;23;20001;-67
2023/06/15 08:23:23;;;;;;;3.65;2.25;;;23.70;68.40;;;;;;6181011;23;20051;-67
2023/06/15 08:25:52;;;;;;;9.48;2.78;;;23.50;68.30;;;;;;6180528;23;20004;-68
2023/06/15 08:28:18;;;;;;;1.95;1.67;;;23.50;71.00;;;;;;6180660;23;20032;-67
2023/06/15 08:30:43;;;;;;;3.30;2.53;;;23.50;70.50;;;;;;6153811;23;20020;-66
2023/06/15 08:33:09;;;;;;;2.60;2.40;;;23.60;69.90;;;;;;6180387;23;20005;-66
2023/06/15 08:35:34;;;;;;;5.65;2.20;;;23.50;68.50;;;;;;6179331;23;20047;-66
2023/06/15 08:38:00;;;;;;;3.58;2.17;;;23.40;68.40;;;;;;6154415;23;20027;-69
2023/06/15 08:40:27;;;;;;;5.60;1.83;;;23.40;69.20;;;;;;6180910;23;20049;-65
2023/06/15 08:42:54;;;;;;;2.08;1.85;;;23.40;68.90;;;;;;6181043;23;20008;-65
2023/06/15 08:45:20;;;;;;;3.13;1.90;;;23.50;69.90;;;;;;6180601;23;20016;-66
2023/06/15 08:47:47;;;;;;;3.78;2.30;;;23.50;69.70;;;;;;6180669;23;20001;-67
2023/06/15 08:50:12;;;;;;;6.63;1.95;;;23.40;71.00;;;;;;6180008;23;20012;-65
2023/06/15 08:52:42;;;;;;;4.43;2.00;;;23.30;71.00;;;;;;6180842;23;20676;-67
2023/06/15 08:55:09;;;;;;;4.30;2.08;;;23.10;70.20;;;;;;6180392;23;20001;-65
2023/06/15 08:57:35;;;;;;;4.75;2.20;;;22.90;71.20;;;;;;6180813;23;20031;-65
2023/06/15 09:00:09;;;;;;;4.38;1.90;;;22.90;72.00;;;;;;6179874;23;20032;-65
2023/06/15 09:02:39;;;;;;;6.18;2.30;;;22.80;70.40;;;;;;6180239;23;20089;-66
2023/06/15 09:05:06;;;;;;;2.90;1.85;;;22.70;71.20;;;;;;6180669;23;20005;-65
2023/06/15 09:07:32;;;;;;;3.53;1.88;;;22.60;70.70;;;;;;6180234;23;19998;-68
2023/06/15 09:10:26;;;;;;;3.67;2.00;;;22.60;71.20;;;;;;6153698;23;20001;-66
2023/06/15 09:12:53;;;;;;;4.97;2.13;;;22.60;70.50;;;;;;6175884;23;20021;-63
2023/06/15 09:15:21;;;;;;;7.85;2.42;;;22.50;71.20;;;;;;6180273;23;20032;-65
2023/06/15 09:17:57;;;;;;;1.90;1.80;;;22.40;71.40;;;;;;6180238;23;20001;-66
2023/06/15 09:20:25;;;;;;;4.43;1.98;;;22.40;72.70;;;;;;6180606;23;20008;-67
2023/06/15 09:22:51;;;;;;;6.38;1.95;;;22.30;72.30;;;;;;6153567;23;20039;-67
2023/06/15 09:25:21;;;;;;;2.22;2.00;;;22.40;71.40;;;;;;6179709;23;20072;-67
2023/06/15 09:28:06;;;;;;;3.33;1.75;;;22.40;71.10;;;;;;6180305;23;20007;-67
2023/06/15 09:30:33;;;;;;;4.50;2.10;;;22.50;71.40;;;;;;6153276;23;20005;-68
2023/06/15 09:33:11;;;;;;;3.20;2.15;;;22.70;70.80;;;;;;6179746;23;20076;-62
2023/06/15 09:35:36;;;;;;;4.45;2.50;;;22.70;69.80;;;;;;6178780;23;20009;-65
2023/06/15 09:38:02;;;;;;;3.10;2.08;;;22.70;71.00;;;;;;6180443;23;20081;-66
2023/06/15 09:40:30;;;;;;;4.50;2.25;;;22.70;70.50;;;;;;6179694;23;20012;-66
2023/06/15 09:42:57;;;;;;;4.13;2.13;;;22.60;71.70;;;;;;6153517;23;20428;-64
2023/06/15 09:45:23;;;;;;;2.63;1.90;;;22.70;70.20;;;;;;6179636;23;20453;-64
2023/06/15 09:47:56;;;;;;;6.10;1.95;;;23.00;72.00;;;;;;6179977;23;19997;-63
2023/06/15 09:50:31;;;;;;;1.75;1.65;;;23.10;71.40;;;;;;6179902;23;20066;-66
2023/06/15 09:52:58;;;;;;;2.65;2.08;;;23.10;69.90;;;;;;6180368;23;20044;-66
2023/06/15 09:55:24;;;;;;;7.70;2.88;;;23.10;70.10;;;;;;6178622;23;20007;-68
2023/06/15 09:57:52;;;;;;;3.17;2.10;;;22.90;70.10;;;;;;6180140;23;19997;-65
2023/06/15 10:00:18;;;;;;;2.45;1.90;;;22.90;70.40;;;;;;6178762;23;20496;-67
2023/06/15 10:02:46;;;;;;;3.35;2.22;;;23.00;70.80;;;;;;6179771;23;20323;-67
2023/06/15 10:05:14;;;;;;;9.35;2.28;;;23.00;68.90;;;;;;6152722;23;20110;-66
2023/06/15 10:07:46;;;;;;;5.20;2.50;;;22.90;69.80;;;;;;6152880;23;20296;-66
2023/06/15 10:10:15;;;;;;;2.83;2.20;;;23.00;69.60;;;;;;6153535;23;20071;-65
2023/06/15 10:12:45;;;;;;;2.08;1.88;;;23.10;68.20;;;;;;6179682;23;20005;-68
2023/06/15 10:15:14;;;;;;;5.80;2.78;;;23.20;68.50;;;;;;6179240;23;20422;-68
2023/06/15 10:17:42;;;;;;;7.35;2.45;;;23.20;68.80;;;;;;6152816;23;20460;-67
2023/06/15 10:20:16;;;;;;;3.05;1.95;;;23.10;69.20;;;;;;6153000;23;20699;-66
2023/06/15 10:22:51;;;;;;;2.00;1.90;;;23.20;69.60;;;;;;6179412;23;20001;-65
2023/06/15 10:25:18;;;;;;;3.58;2.13;;;23.10;70.60;;;;;;6179173;23;20001;-66
2023/06/15 10:27:44;;;;;;;2.10;1.90;;;23.10;69.90;;;;;;6152920;23;20001;-66
2023/06/15 10:30:20;;;;;;;2.70;2.10;;;23.20;70.80;;;;;;6152086;23;20001;-66
2023/06/15 10:32:57;;;;;;;5.97;2.28;;;23.20;71.90;;;;;;6178480;23;20001;-66
2023/06/15 10:35:29;;;;;;;3.53;2.30;;;23.40;71.60;;;;;;6152640;23;20353;-67
2023/06/15 10:38:17;;;;;;;3.20;2.35;;;23.50;72.80;;;;;;6179493;23;20021;-67
2023/06/15 10:40:47;;;;;;;4.75;2.50;;;23.60;71.90;;;;;;6152801;23;20009;-66
2023/06/15 10:43:20;;;;;;;2.92;2.17;;;23.70;73.00;;;;;;6179633;23;20001;-64
2023/06/15 10:45:47;;;;;;;4.07;2.40;;;23.50;70.60;;;;;;6178590;23;20017;-66
2023/06/15 10:48:27;;;;;;;4.55;2.38;;;23.40;72.20;;;;;;6152336;23;20001;-65
2023/06/15 10:51:02;;;;;;;6.18;2.85;;;23.40;72.90;;;;;;6152914;23;20082;-64
2023/06/15 10:53:28;;;;;;;4.93;3.23;;;23.40;73.20;;;;;;6179165;23;20079;-66
2023/06/15 10:55:57;;;;;;;7.15;3.00;;;23.60;73.90;;;;;;6179150;23;20012;-67
2023/06/15 10:58:25;;;;;;;3.67;2.20;;;23.90;72.40;;;;;;6179502;23;20461;-67
2023/06/15 11:01:13;;;;;;;5.38;2.70;;;24.10;74.30;;;;;;6178610;23;20068;-67
2023/06/15 11:03:43;;;;;;;3.20;2.47;;;24.20;73.90;;;;;;6152059;23;20095;-66
2023/06/15 11:06:15;;;;;;;3.95;2.72;;;24.30;74.00;;;;;;6152832;23;20717;-66
2023/06/15 11:09:01;;;;;;;3.40;2.35;;;24.50;73.70;;;;;;6178532;23;20001;-67
2023/06/15 11:11:35;;;;;;;6.80;2.67;;;24.60;72.60;;;;;;6179953;23;20001;-66
2023/06/15 11:14:06;;;;;;;3.50;2.38;;;24.60;73.70;;;;;;6178374;23;20096;-68
2023/06/15 11:16:34;;;;;;;5.25;2.70;;;24.20;73.10;;;;;;6179080;23;20032;-65
2023/06/15 11:19:20;;;;;;;6.50;2.90;;;23.70;73.40;;;;;;6178765;23;20373;-64
2023/06/15 11:22:01;;;;;;;5.68;2.42;;;23.90;73.30;;;;;;6151754;23;20103;-68
2023/06/15 11:24:33;;;;;;;2.70;2.38;;;23.80;73.40;;;;;;6178649;23;20005;-66
2023/06/15 11:27:03;;;;;;;5.10;2.90;;;23.80;73.50;;;;;;6153100;23;20441;-67
2023/06/15 11:29:33;;;;;;;5.78;2.90;;;23.70;74.90;;;;;;6159943;23;20028;-56
2023/06/15 11:32:02;;;;;;;3.17;2.88;;;23.40;72.90;;;;;;6147504;23;20005;-57
2023/06/15 11:34:29;;;;;;;3.97;2.47;;;23.40;73.90;;;;;;6149164;23;20001;-55
2023/06/15 11:36:59;;;;;;;6.25;2.65;;;23.40;73.80;;;;;;6146750;23;20044;-54
2023/06/15 11:39:27;;;;;;;2.85;2.60;;;23.30;73.60;;;;;;6149108;23;20008;-56
2023/06/15 11:41:56;;;;;;;3.60;2.63;;;23.30;74.20;;;;;;6148572;23;20001;-58
2023/06/15 11:44:29;;;;;;;4.45;2.63;;;23.20;73.80;;;;;;6148843;23;20009;-58
2023/06/15 11:46:59;;;;;;;2.88;2.22;;;23.00;75.40;;;;;;6148996;23;20033;-59
2023/06/15 11:49:32;;;;;;;3.90;2.85;;;23.00;75.30;;;;;;6149658;23;20002;-59
2023/06/15 11:51:58;;;;;;;3.83;2.70;;;23.10;75.60;;;;;;6148721;23;20442;-55
2023/06/15 11:54:28;;;;;;;3.28;2.70;;;23.30;75.40;;;;;;6148568;23;19997;-55
2023/06/15 11:56:58;;;;;;;3.92;2.40;;;23.40;74.20;;;;;;6149402;23;20080;-58
2023/06/15 11:59:28;;;;;;;2.85;2.45;;;23.40;75.20;;;;;;6147937;23;20012;-57
2023/06/15 12:02:00;;;;;;;3.40;2.60;;;23.60;73.90;;;;;;6148909;23;20462;-58
2023/06/15 12:04:30;;;;;;;3.65;2.53;;;23.80;75.50;;;;;;6148336;23;20032;-60
2023/06/15 12:06:58;;;;;;;2.70;2.50;;;23.90;74.90;;;;;;6149114;23;20002;-55
2023/06/15 12:09:23;;;;;;;4.10;2.60;;;23.70;73.70;;;;;;6148877;23;19997;-59
2023/06/15 12:11:49;;;;;;;3.42;2.65;;;23.80;73.30;;;;;;6148570;23;20056;-56
2023/06/15 12:14:21;;;;;;;2.60;2.30;;;24.00;70.80;;;;;;6149162;23;20077;-55
2023/06/15 12:16:50;;;;;;;2.47;2.28;;;24.00;69.00;;;;;;6149614;23;20032;-59
2023/06/15 12:19:16;;;;;;;3.35;2.47;;;24.10;68.40;;;;;;6149073;23;20422;-57
2023/06/15 12:21:43;;;;;;;4.72;2.70;;;24.10;67.90;;;;;;6148698;23;20001;-56
2023/06/15 12:24:13;;;;;;;5.65;2.97;;;24.40;67.80;;;;;;6148569;23;20013;-57
2023/06/15 12:26:38;;;;;;;7.10;2.72;;;24.60;66.50;;;;;;6148988;23;20010;-59
2023/06/15 12:29:18;;;;;;;2.58;2.38;;;24.60;65.40;;;;;;6148089;23;20024;-57
2023/06/15 12:31:48;;;;;;;2.88;2.25;;;24.20;67.00;;;;;;6148432;23;20020;-51
2023/06/15 12:34:14;;;;;;;3.58;2.45;;;24.10;66.40;;;;;;6149405;23;20531;-59
2023/06/15 12:36:40;;;;;;;2.88;2.25;;;24.00;66.70;;;;;;6147728;23;20024;-55
2023/06/15 12:39:08;;;;;;;4.63;2.65;;;24.00;67.80;;;;;;6148972;23;20410;-59
2023/06/15 12:41:38;;;;;;;3.58;2.80;;;24.00;67.40;;;;;;6148359;23;20029;-55
2023/06/15 12:44:05;;;;;;;4.32;2.75;;;23.80;68.80;;;;;;6146728;23;20468;-57
2023/06/15 12:46:36;;;;;;;4.75;2.65;;;23.90;68.30;;;;;;6148908;23;20383;-57
2023/06/15 12:49:04;;;;;;;3.97;2.00;;;24.00;68.50;;;;;;6150146;23;20001;-57